Terminal Aerodrome Forecast
Issued by NWS

Home | Current Version | Previous Version | Text Only | Print | Product List | Glossary On
Versions: 1 2 3 4 5 6 7 8 9 10 11 12
000
FTUS45 KGJT 201120
TAFCNY
TAF
KCNY 201120Z 2012/2112 16008KT P6SM SKC
     FM201500 15010G18KT P6SM FEW100 FEW200
     FM201700 19018G29KT P6SM SKC
     FM202000 22024G38KT P6SM FEW100 FEW250
     FM202300 25020G34KT P6SM FEW100 SCT200
     FM210200 28019G32KT P6SM SCT090 BKN140
     FM210700 30011KT P6SM FEW100 SCT200
     FM211100 29007KT P6SM FEW070 FEW250=

USA.gov is the U.S. government's official web portal to all federal, state and local government web resources and services.